EWG6587 EDDV-LFST
Flight info
| Callsign | EWG6587 |
|---|---|
| Flight time | 1h 8m |
| Altitude | 22000 |
| Route | NORTA1G NORTA P12 WRB N850 KRH T715 DENEL Y126 LUPEN LUPEN6Y |
| Aircraft | DH8D/M-SDE2E3FGRY/S |
Departure
| Time | 2026-05-08 11:42 |
|---|---|
| Airport | Hannover Airport (EDDV) |
Arrival
| Time | 2026-05-08 12:51 |
|---|---|
| Airport | Strasbourg Airport (LFST) |
| Time | Latitude | Longitude | Altitude | Speed | Heading |
|---|---|---|---|---|---|
| 2026-05-08 11:26 | 52.45715 | 9.68830 | 179 ft | 0 kts | 182° |
| 2026-05-08 11:28 | 52.45716 | 9.68830 | 179 ft | 0 kts | 182° |
| 2026-05-08 11:29 | 52.45715 | 9.68830 | 179 ft | 0 kts | 182° |
| 2026-05-08 11:34 | 52.45721 | 9.68830 | 179 ft | 2 kts | 183° |
| 2026-05-08 11:34 | 52.45735 | 9.68831 | 179 ft | 2 kts | 182° |
| 2026-05-08 11:34 | 52.45750 | 9.68832 | 179 ft | 2 kts | 186° |
| 2026-05-08 11:34 | 52.45764 | 9.68840 | 179 ft | 2 kts | 214° |
| 2026-05-08 11:35 | 52.45775 | 9.68857 | 179 ft | 2 kts | 240° |
| 2026-05-08 11:35 | 52.45779 | 9.68880 | 179 ft | 2 kts | 266° |
| 2026-05-08 11:35 | 52.45779 | 9.68890 | 179 ft | 0 kts | 273° |
| 2026-05-08 11:38 | 52.45779 | 9.68872 | 179 ft | 8 kts | 271° |
| 2026-05-08 11:38 | 52.45778 | 9.68730 | 179 ft | 12 kts | 278° |
| 2026-05-08 11:38 | 52.45785 | 9.68599 | 180 ft | 10 kts | 277° |
| 2026-05-08 11:38 | 52.45789 | 9.68485 | 180 ft | 9 kts | 272° |
| 2026-05-08 11:39 | 52.45791 | 9.68383 | 180 ft | 8 kts | 260° |
| 2026-05-08 11:39 | 52.45754 | 9.68321 | 180 ft | 7 kts | 204° |
| 2026-05-08 11:39 | 52.45703 | 9.68287 | 180 ft | 7 kts | 202° |
| 2026-05-08 11:39 | 52.45659 | 9.68242 | 180 ft | 9 kts | 238° |
| 2026-05-08 11:40 | 52.45650 | 9.68077 | 180 ft | 15 kts | 270° |
| 2026-05-08 11:40 | 52.45656 | 9.67914 | 181 ft | 13 kts | 276° |
| 2026-05-08 11:40 | 52.45651 | 9.67777 | 181 ft | 11 kts | 243° |
| 2026-05-08 11:40 | 52.45592 | 9.67704 | 181 ft | 10 kts | 195° |
| 2026-05-08 11:41 | 52.45525 | 9.67701 | 181 ft | 9 kts | 176° |
| 2026-05-08 11:41 | 52.45494 | 9.67745 | 181 ft | 5 kts | 91° |
| 2026-05-08 11:41 | 52.45488 | 9.68022 | 181 ft | 65 kts | 92° |
| 2026-05-08 11:41 | 52.45458 | 9.69216 | 181 ft | 138 kts | 92° |
| 2026-05-08 11:42 | 52.45393 | 9.70888 | 487 ft | 155 kts | 96° |
| 2026-05-08 11:42 | 52.45311 | 9.72699 | 952 ft | 167 kts | 92° |
| 2026-05-08 11:42 | 52.45249 | 9.74626 | 1439 ft | 172 kts | 92° |
| 2026-05-08 11:42 | 52.45194 | 9.76585 | 1970 ft | 175 kts | 92° |
| 2026-05-08 11:43 | 52.45144 | 9.78565 | 2516 ft | 176 kts | 91° |
| 2026-05-08 11:43 | 52.45101 | 9.80661 | 2759 ft | 197 kts | 91° |
| 2026-05-08 11:43 | 52.45054 | 9.82946 | 3172 ft | 205 kts | 91° |
| 2026-05-08 11:43 | 52.45011 | 9.85315 | 3647 ft | 211 kts | 91° |
| 2026-05-08 11:44 | 52.44964 | 9.87709 | 4192 ft | 212 kts | 92° |
| 2026-05-08 11:44 | 52.44567 | 9.90038 | 4676 ft | 216 kts | 125° |
| 2026-05-08 11:44 | 52.43340 | 9.91388 | 5123 ft | 221 kts | 160° |
| 2026-05-08 11:44 | 52.41852 | 9.92059 | 5661 ft | 224 kts | 163° |
| 2026-05-08 11:45 | 52.40321 | 9.92456 | 6185 ft | 227 kts | 180° |
| 2026-05-08 11:45 | 52.38736 | 9.92122 | 6734 ft | 229 kts | 188° |
| 2026-05-08 11:45 | 52.37093 | 9.91680 | 7285 ft | 231 kts | 188° |
| 2026-05-08 11:45 | 52.35397 | 9.91234 | 7841 ft | 233 kts | 188° |
| 2026-05-08 11:46 | 52.33641 | 9.90769 | 8412 ft | 236 kts | 188° |
| 2026-05-08 11:46 | 52.31936 | 9.90323 | 8945 ft | 239 kts | 188° |
| 2026-05-08 11:46 | 52.30300 | 9.89889 | 9468 ft | 240 kts | 189° |
| 2026-05-08 11:46 | 52.28642 | 9.89445 | 9969 ft | 243 kts | 189° |
| 2026-05-08 11:47 | 52.26963 | 9.89006 | 10505 ft | 245 kts | 188° |
| 2026-05-08 11:47 | 52.25304 | 9.88574 | 11029 ft | 247 kts | 189° |
| 2026-05-08 11:47 | 52.23592 | 9.88172 | 11547 ft | 248 kts | 187° |
| 2026-05-08 11:47 | 52.21893 | 9.87850 | 12063 ft | 250 kts | 187° |
| 2026-05-08 11:48 | 52.20168 | 9.87523 | 12583 ft | 251 kts | 187° |
| 2026-05-08 11:48 | 52.18417 | 9.87190 | 13095 ft | 253 kts | 187° |
| 2026-05-08 11:48 | 52.16697 | 9.86862 | 13576 ft | 254 kts | 188° |
| 2026-05-08 11:48 | 52.14938 | 9.86523 | 14039 ft | 256 kts | 188° |
| 2026-05-08 11:49 | 52.13173 | 9.86183 | 14484 ft | 258 kts | 188° |
| 2026-05-08 11:49 | 52.11385 | 9.85837 | 14914 ft | 260 kts | 188° |
| 2026-05-08 11:49 | 52.09580 | 9.85488 | 15325 ft | 263 kts | 188° |
| 2026-05-08 11:49 | 52.07768 | 9.85137 | 15740 ft | 264 kts | 188° |
| 2026-05-08 11:50 | 52.05938 | 9.84783 | 16147 ft | 266 kts | 188° |
| 2026-05-08 11:50 | 52.04101 | 9.84427 | 16532 ft | 268 kts | 188° |
| 2026-05-08 11:50 | 52.02252 | 9.84068 | 16919 ft | 269 kts | 188° |
| 2026-05-08 11:50 | 52.00418 | 9.83713 | 17302 ft | 270 kts | 188° |
| 2026-05-08 11:51 | 51.98533 | 9.83348 | 17668 ft | 271 kts | 188° |
| 2026-05-08 11:51 | 51.96674 | 9.82986 | 18027 ft | 272 kts | 189° |
| 2026-05-08 11:51 | 51.94790 | 9.82612 | 18380 ft | 273 kts | 188° |
| 2026-05-08 11:51 | 51.92913 | 9.82251 | 18710 ft | 275 kts | 188° |
| 2026-05-08 11:52 | 51.91011 | 9.81886 | 19031 ft | 276 kts | 188° |
| 2026-05-08 11:52 | 51.89090 | 9.81517 | 19344 ft | 278 kts | 188° |
| 2026-05-08 11:52 | 51.87226 | 9.80940 | 19609 ft | 276 kts | 203° |
| 2026-05-08 11:52 | 51.85674 | 9.79181 | 19837 ft | 274 kts | 226° |
| 2026-05-08 11:53 | 51.84334 | 9.76989 | 20137 ft | 274 kts | 227° |
| 2026-05-08 11:53 | 51.82999 | 9.74783 | 20406 ft | 275 kts | 227° |
| 2026-05-08 11:53 | 51.81674 | 9.72592 | 20660 ft | 276 kts | 227° |
| 2026-05-08 11:53 | 51.80328 | 9.70372 | 20907 ft | 277 kts | 227° |
| 2026-05-08 11:54 | 51.78987 | 9.68163 | 21154 ft | 277 kts | 227° |
| 2026-05-08 11:54 | 51.77636 | 9.65943 | 21382 ft | 278 kts | 227° |
| 2026-05-08 11:54 | 51.76283 | 9.63723 | 21597 ft | 279 kts | 227° |
| 2026-05-08 11:54 | 51.74932 | 9.61509 | 21818 ft | 279 kts | 227° |
| 2026-05-08 11:55 | 51.73568 | 9.59276 | 22007 ft | 280 kts | 227° |
| 2026-05-08 11:55 | 51.72191 | 9.57025 | 22099 ft | 285 kts | 227° |
| 2026-05-08 11:55 | 51.70802 | 9.54755 | 22120 ft | 292 kts | 227° |
| 2026-05-08 11:55 | 51.69358 | 9.52401 | 22126 ft | 298 kts | 227° |
| 2026-05-08 11:56 | 51.67990 | 9.49861 | 22130 ft | 303 kts | 234° |
| 2026-05-08 11:56 | 51.66738 | 9.47086 | 22126 ft | 308 kts | 236° |
| 2026-05-08 11:56 | 51.65491 | 9.44289 | 22124 ft | 313 kts | 236° |
| 2026-05-08 11:56 | 51.64210 | 9.41424 | 22125 ft | 317 kts | 236° |
| 2026-05-08 11:57 | 51.62915 | 9.38537 | 22126 ft | 320 kts | 236° |
| 2026-05-08 11:57 | 51.61620 | 9.35655 | 22126 ft | 323 kts | 236° |
| 2026-05-08 11:57 | 51.60296 | 9.32714 | 22124 ft | 325 kts | 235° |
| 2026-05-08 11:57 | 51.58963 | 9.29761 | 22124 ft | 327 kts | 234° |
| 2026-05-08 11:58 | 51.57630 | 9.26812 | 22120 ft | 328 kts | 234° |
| 2026-05-08 11:58 | 51.56302 | 9.23879 | 22114 ft | 329 kts | 234° |
| 2026-05-08 11:58 | 51.54955 | 9.20909 | 22109 ft | 330 kts | 234° |
| 2026-05-08 11:59 | 51.52257 | 9.14978 | 22117 ft | 331 kts | 234° |
| 2026-05-08 11:59 | 51.50753 | 9.12178 | 22089 ft | 333 kts | 220° |
| 2026-05-08 11:59 | 51.48655 | 9.10599 | 22136 ft | 335 kts | 197° |
| 2026-05-08 11:59 | 51.46373 | 9.09769 | 22118 ft | 337 kts | 193° |
| 2026-05-08 12:00 | 51.44083 | 9.08992 | 22112 ft | 338 kts | 193° |
| 2026-05-08 12:00 | 51.41783 | 9.08218 | 22106 ft | 339 kts | 193° |
| 2026-05-08 12:00 | 51.39498 | 9.07449 | 22104 ft | 339 kts | 193° |
| 2026-05-08 12:00 | 51.37180 | 9.06668 | 22109 ft | 340 kts | 193° |
| 2026-05-08 12:01 | 51.34866 | 9.05887 | 22114 ft | 340 kts | 193° |
| 2026-05-08 12:01 | 51.32551 | 9.05106 | 22099 ft | 340 kts | 193° |
| 2026-05-08 12:01 | 51.30239 | 9.04326 | 22105 ft | 340 kts | 193° |
| 2026-05-08 12:01 | 51.27930 | 9.03547 | 22098 ft | 340 kts | 193° |
| 2026-05-08 12:02 | 51.25633 | 9.02772 | 22094 ft | 340 kts | 193° |
| 2026-05-08 12:02 | 51.23323 | 9.01993 | 22099 ft | 340 kts | 193° |
| 2026-05-08 12:02 | 51.21003 | 9.01211 | 22103 ft | 340 kts | 193° |
| 2026-05-08 12:02 | 51.18670 | 9.00425 | 22097 ft | 340 kts | 194° |
| 2026-05-08 12:03 | 51.16376 | 8.99653 | 22090 ft | 340 kts | 193° |
| 2026-05-08 12:03 | 51.14060 | 8.98875 | 22098 ft | 340 kts | 193° |
| 2026-05-08 12:03 | 51.11736 | 8.98095 | 22109 ft | 340 kts | 194° |
| 2026-05-08 12:03 | 51.09421 | 8.97347 | 22099 ft | 340 kts | 192° |
| 2026-05-08 12:04 | 51.07112 | 8.96687 | 22100 ft | 340 kts | 192° |
| 2026-05-08 12:04 | 51.04784 | 8.96005 | 22099 ft | 339 kts | 193° |
| 2026-05-08 12:04 | 51.02467 | 8.95246 | 22099 ft | 339 kts | 194° |
| 2026-05-08 12:04 | 51.00159 | 8.94480 | 22093 ft | 339 kts | 193° |
| 2026-05-08 12:05 | 50.97857 | 8.93717 | 22096 ft | 339 kts | 193° |
| 2026-05-08 12:05 | 50.95561 | 8.92957 | 22099 ft | 339 kts | 194° |
| 2026-05-08 12:05 | 50.93265 | 8.92199 | 22096 ft | 338 kts | 194° |
| 2026-05-08 12:05 | 50.90960 | 8.91439 | 22093 ft | 338 kts | 193° |
| 2026-05-08 12:06 | 50.88672 | 8.90686 | 22094 ft | 338 kts | 193° |
| 2026-05-08 12:06 | 50.86358 | 8.89925 | 22091 ft | 338 kts | 193° |
| 2026-05-08 12:06 | 50.84079 | 8.89177 | 22087 ft | 338 kts | 194° |
| 2026-05-08 12:06 | 50.81772 | 8.88409 | 22085 ft | 337 kts | 194° |
| 2026-05-08 12:07 | 50.79505 | 8.87619 | 22083 ft | 337 kts | 194° |
| 2026-05-08 12:07 | 50.77196 | 8.86805 | 22078 ft | 337 kts | 194° |
| 2026-05-08 12:07 | 50.74898 | 8.86003 | 22075 ft | 337 kts | 194° |
| 2026-05-08 12:07 | 50.72631 | 8.85206 | 22074 ft | 337 kts | 194° |
| 2026-05-08 12:08 | 50.70341 | 8.84402 | 22074 ft | 337 kts | 194° |
| 2026-05-08 12:08 | 50.68059 | 8.83606 | 22074 ft | 336 kts | 194° |
| 2026-05-08 12:08 | 50.65767 | 8.82812 | 22076 ft | 336 kts | 194° |
| 2026-05-08 12:08 | 50.63476 | 8.82191 | 22060 ft | 338 kts | 185° |
| 2026-05-08 12:09 | 50.61129 | 8.82474 | 22087 ft | 339 kts | 174° |
| 2026-05-08 12:09 | 50.58805 | 8.82972 | 22085 ft | 340 kts | 174° |
| 2026-05-08 12:09 | 50.56456 | 8.83489 | 22079 ft | 340 kts | 174° |
| 2026-05-08 12:09 | 50.54133 | 8.83998 | 22077 ft | 340 kts | 174° |
| 2026-05-08 12:10 | 50.51779 | 8.84510 | 22072 ft | 340 kts | 174° |
| 2026-05-08 12:10 | 50.49426 | 8.85012 | 22073 ft | 340 kts | 174° |
| 2026-05-08 12:10 | 50.47109 | 8.85510 | 22075 ft | 340 kts | 174° |
| 2026-05-08 12:10 | 50.44756 | 8.86008 | 22074 ft | 340 kts | 174° |
| 2026-05-08 12:11 | 50.42417 | 8.86501 | 22074 ft | 340 kts | 174° |
| 2026-05-08 12:11 | 50.40082 | 8.86992 | 22074 ft | 339 kts | 174° |
| 2026-05-08 12:11 | 50.37731 | 8.87486 | 22074 ft | 339 kts | 174° |
| 2026-05-08 12:11 | 50.35428 | 8.87971 | 22073 ft | 339 kts | 174° |
| 2026-05-08 12:12 | 50.33095 | 8.88453 | 22076 ft | 339 kts | 174° |
| 2026-05-08 12:12 | 50.30755 | 8.88940 | 22072 ft | 339 kts | 174° |
| 2026-05-08 12:12 | 50.28407 | 8.89432 | 22074 ft | 338 kts | 174° |
| 2026-05-08 12:12 | 50.26094 | 8.89916 | 22075 ft | 339 kts | 174° |
| 2026-05-08 12:13 | 50.23730 | 8.90414 | 22074 ft | 339 kts | 174° |
| 2026-05-08 12:13 | 50.21417 | 8.90903 | 22075 ft | 339 kts | 174° |
| 2026-05-08 12:13 | 50.19085 | 8.91395 | 22077 ft | 339 kts | 174° |
| 2026-05-08 12:13 | 50.16737 | 8.91875 | 22070 ft | 338 kts | 176° |
| 2026-05-08 12:14 | 50.14459 | 8.91596 | 22060 ft | 331 kts | 199° |
| 2026-05-08 12:14 | 50.12490 | 8.89796 | 22093 ft | 325 kts | 220° |
| 2026-05-08 12:14 | 50.10805 | 8.87469 | 22078 ft | 326 kts | 223° |
| 2026-05-08 12:14 | 50.09136 | 8.85095 | 22077 ft | 326 kts | 223° |
| 2026-05-08 12:15 | 50.07486 | 8.82731 | 22081 ft | 326 kts | 223° |
| 2026-05-08 12:15 | 50.05737 | 8.80500 | 22060 ft | 328 kts | 212° |
| 2026-05-08 12:15 | 50.03580 | 8.79333 | 22112 ft | 328 kts | 195° |
| 2026-05-08 12:15 | 50.01360 | 8.78564 | 22096 ft | 329 kts | 194° |
| 2026-05-08 12:16 | 49.99137 | 8.77806 | 22084 ft | 330 kts | 194° |
| 2026-05-08 12:16 | 49.96892 | 8.77042 | 22080 ft | 331 kts | 194° |
| 2026-05-08 12:16 | 49.94633 | 8.76271 | 22079 ft | 331 kts | 194° |
| 2026-05-08 12:16 | 49.92379 | 8.75499 | 22080 ft | 331 kts | 194° |
| 2026-05-08 12:17 | 49.90123 | 8.74726 | 22080 ft | 332 kts | 194° |
| 2026-05-08 12:17 | 49.87855 | 8.73948 | 22079 ft | 332 kts | 194° |
| 2026-05-08 12:17 | 49.85614 | 8.73179 | 22080 ft | 332 kts | 194° |
| 2026-05-08 12:17 | 49.83380 | 8.72412 | 22078 ft | 332 kts | 194° |
| 2026-05-08 12:18 | 49.81123 | 8.71637 | 22076 ft | 332 kts | 194° |
| 2026-05-08 12:18 | 49.78857 | 8.70859 | 22075 ft | 332 kts | 194° |
| 2026-05-08 12:18 | 49.76629 | 8.70095 | 22075 ft | 332 kts | 194° |
| 2026-05-08 12:18 | 49.74368 | 8.69325 | 22073 ft | 332 kts | 193° |
| 2026-05-08 12:19 | 49.72077 | 8.68818 | 22080 ft | 332 kts | 187° |
| 2026-05-08 12:19 | 49.69761 | 8.68511 | 22079 ft | 332 kts | 187° |
| 2026-05-08 12:19 | 49.67483 | 8.68217 | 22075 ft | 332 kts | 187° |
| 2026-05-08 12:19 | 49.65170 | 8.67918 | 22077 ft | 332 kts | 187° |
| 2026-05-08 12:20 | 49.62891 | 8.67620 | 22078 ft | 332 kts | 187° |
| 2026-05-08 12:20 | 49.60588 | 8.67318 | 22073 ft | 331 kts | 187° |
| 2026-05-08 12:20 | 49.58308 | 8.67017 | 22075 ft | 331 kts | 187° |
| 2026-05-08 12:20 | 49.56002 | 8.66712 | 22077 ft | 332 kts | 187° |
| 2026-05-08 12:21 | 49.53722 | 8.66410 | 22077 ft | 332 kts | 187° |
| 2026-05-08 12:21 | 49.51411 | 8.66103 | 22077 ft | 332 kts | 187° |
| 2026-05-08 12:21 | 49.49109 | 8.65797 | 22074 ft | 332 kts | 187° |
| 2026-05-08 12:21 | 49.46838 | 8.65496 | 22074 ft | 332 kts | 187° |
| 2026-05-08 12:22 | 49.44522 | 8.65188 | 22071 ft | 332 kts | 187° |
| 2026-05-08 12:22 | 49.42245 | 8.64886 | 22070 ft | 332 kts | 187° |
| 2026-05-08 12:22 | 49.39938 | 8.64580 | 22070 ft | 332 kts | 187° |
| 2026-05-08 12:22 | 49.37636 | 8.64274 | 22065 ft | 332 kts | 187° |
| 2026-05-08 12:23 | 49.35329 | 8.63969 | 22066 ft | 332 kts | 187° |
| 2026-05-08 12:23 | 49.33041 | 8.63667 | 22068 ft | 332 kts | 187° |
| 2026-05-08 12:23 | 49.30738 | 8.63339 | 22066 ft | 332 kts | 187° |
| 2026-05-08 12:23 | 49.28434 | 8.62977 | 22058 ft | 332 kts | 187° |
| 2026-05-08 12:24 | 49.26136 | 8.62616 | 22062 ft | 332 kts | 187° |
| 2026-05-08 12:24 | 49.23849 | 8.62258 | 22064 ft | 333 kts | 187° |
| 2026-05-08 12:24 | 49.21571 | 8.61902 | 22053 ft | 332 kts | 187° |
| 2026-05-08 12:24 | 49.19262 | 8.61543 | 22058 ft | 332 kts | 187° |
| 2026-05-08 12:25 | 49.16945 | 8.61183 | 22054 ft | 332 kts | 187° |
| 2026-05-08 12:25 | 49.14678 | 8.60833 | 22055 ft | 331 kts | 187° |
| 2026-05-08 12:25 | 49.12376 | 8.60482 | 22056 ft | 331 kts | 187° |
| 2026-05-08 12:25 | 49.10074 | 8.60137 | 22052 ft | 331 kts | 187° |
| 2026-05-08 12:26 | 49.07801 | 8.59796 | 22049 ft | 331 kts | 187° |
| 2026-05-08 12:26 | 49.05499 | 8.59451 | 22045 ft | 331 kts | 187° |
| 2026-05-08 12:26 | 49.03236 | 8.59112 | 22043 ft | 330 kts | 187° |
| 2026-05-08 12:26 | 49.00936 | 8.58761 | 22040 ft | 329 kts | 188° |
| 2026-05-08 12:27 | 48.98779 | 8.57816 | 22020 ft | 324 kts | 210° |
| 2026-05-08 12:27 | 48.96926 | 8.55876 | 22030 ft | 323 kts | 217° |
| 2026-05-08 12:27 | 48.95143 | 8.53850 | 21721 ft | 324 kts | 217° |
| 2026-05-08 12:27 | 48.93340 | 8.51790 | 21314 ft | 327 kts | 217° |
| 2026-05-08 12:28 | 48.91522 | 8.49714 | 20893 ft | 328 kts | 217° |
| 2026-05-08 12:28 | 48.89700 | 8.47638 | 20465 ft | 327 kts | 217° |
| 2026-05-08 12:28 | 48.87883 | 8.45571 | 20026 ft | 326 kts | 217° |
| 2026-05-08 12:28 | 48.86094 | 8.43539 | 19592 ft | 325 kts | 217° |
| 2026-05-08 12:29 | 48.84275 | 8.41475 | 19165 ft | 324 kts | 217° |
| 2026-05-08 12:29 | 48.82480 | 8.39439 | 18742 ft | 323 kts | 217° |
| 2026-05-08 12:29 | 48.80693 | 8.37417 | 18318 ft | 322 kts | 217° |
| 2026-05-08 12:29 | 48.78903 | 8.35392 | 17892 ft | 321 kts | 217° |
| 2026-05-08 12:30 | 48.77183 | 8.33458 | 17480 ft | 320 kts | 216° |
| 2026-05-08 12:30 | 48.75406 | 8.31478 | 17060 ft | 320 kts | 216° |
| 2026-05-08 12:30 | 48.73616 | 8.29488 | 16638 ft | 319 kts | 216° |
| 2026-05-08 12:30 | 48.71838 | 8.27511 | 16226 ft | 318 kts | 216° |
| 2026-05-08 12:31 | 48.70061 | 8.25536 | 15799 ft | 317 kts | 216° |
| 2026-05-08 12:31 | 48.68284 | 8.23563 | 15374 ft | 317 kts | 216° |
| 2026-05-08 12:31 | 48.66526 | 8.21612 | 14957 ft | 316 kts | 216° |
| 2026-05-08 12:31 | 48.64759 | 8.19653 | 14541 ft | 315 kts | 216° |
| 2026-05-08 12:32 | 48.62994 | 8.17699 | 14121 ft | 314 kts | 216° |
| 2026-05-08 12:32 | 48.61255 | 8.15773 | 13712 ft | 313 kts | 216° |
| 2026-05-08 12:32 | 48.59494 | 8.13825 | 13297 ft | 312 kts | 216° |
| 2026-05-08 12:32 | 48.57755 | 8.11904 | 12887 ft | 311 kts | 216° |
| 2026-05-08 12:33 | 48.56002 | 8.09968 | 12477 ft | 310 kts | 216° |
| 2026-05-08 12:33 | 48.54290 | 8.08080 | 12066 ft | 308 kts | 216° |
| 2026-05-08 12:33 | 48.52586 | 8.06208 | 11641 ft | 295 kts | 216° |
| 2026-05-08 12:33 | 48.50972 | 8.04434 | 11259 ft | 282 kts | 216° |
| 2026-05-08 12:34 | 48.49424 | 8.02721 | 10883 ft | 271 kts | 216° |
| 2026-05-08 12:34 | 48.47937 | 8.01068 | 10509 ft | 261 kts | 216° |
| 2026-05-08 12:34 | 48.46484 | 7.99470 | 10196 ft | 258 kts | 216° |
| 2026-05-08 12:34 | 48.45036 | 7.97874 | 9870 ft | 262 kts | 216° |
| 2026-05-08 12:35 | 48.43554 | 7.96247 | 9522 ft | 266 kts | 216° |
| 2026-05-08 12:35 | 48.42041 | 7.94589 | 9164 ft | 269 kts | 216° |
| 2026-05-08 12:35 | 48.40529 | 7.92932 | 8804 ft | 271 kts | 216° |
| 2026-05-08 12:35 | 48.39019 | 7.91230 | 8345 ft | 277 kts | 219° |
| 2026-05-08 12:36 | 48.37926 | 7.88832 | 7712 ft | 286 kts | 251° |
| 2026-05-08 12:36 | 48.37859 | 7.85897 | 7376 ft | 285 kts | 282° |
| 2026-05-08 12:36 | 48.38736 | 7.83232 | 7059 ft | 283 kts | 303° |
| 2026-05-08 12:36 | 48.39853 | 7.80826 | 6687 ft | 284 kts | 304° |
| 2026-05-08 12:37 | 48.40998 | 7.78400 | 6312 ft | 284 kts | 304° |
| 2026-05-08 12:37 | 48.42128 | 7.76000 | 5940 ft | 284 kts | 305° |
| 2026-05-08 12:37 | 48.43245 | 7.73613 | 5627 ft | 270 kts | 304° |
| 2026-05-08 12:37 | 48.44269 | 7.71367 | 5541 ft | 248 kts | 303° |
| 2026-05-08 12:38 | 48.45181 | 7.69290 | 5525 ft | 234 kts | 303° |
| 2026-05-08 12:38 | 48.46062 | 7.67285 | 5519 ft | 226 kts | 303° |
| 2026-05-08 12:38 | 48.46913 | 7.65343 | 5519 ft | 218 kts | 303° |
| 2026-05-08 12:38 | 48.47736 | 7.63460 | 5521 ft | 213 kts | 303° |
| 2026-05-08 12:39 | 48.48555 | 7.61592 | 5527 ft | 215 kts | 303° |
| 2026-05-08 12:39 | 48.49383 | 7.59694 | 5529 ft | 217 kts | 302° |
| 2026-05-08 12:39 | 48.49925 | 7.57632 | 5515 ft | 216 kts | 270° |
| 2026-05-08 12:39 | 48.49457 | 7.55563 | 5535 ft | 210 kts | 233° |
| 2026-05-08 12:40 | 48.48524 | 7.53852 | 5535 ft | 212 kts | 229° |
| 2026-05-08 12:40 | 48.47559 | 7.52168 | 5534 ft | 214 kts | 228° |
| 2026-05-08 12:40 | 48.46574 | 7.50462 | 5533 ft | 216 kts | 228° |
| 2026-05-08 12:40 | 48.45579 | 7.48743 | 5531 ft | 219 kts | 228° |
| 2026-05-08 12:41 | 48.44582 | 7.47023 | 5532 ft | 221 kts | 228° |
| 2026-05-08 12:41 | 48.43573 | 7.45284 | 5533 ft | 223 kts | 228° |
| 2026-05-08 12:41 | 48.42548 | 7.43520 | 5527 ft | 225 kts | 228° |
| 2026-05-08 12:41 | 48.41513 | 7.41738 | 5519 ft | 227 kts | 228° |
| 2026-05-08 12:42 | 48.40465 | 7.39937 | 5524 ft | 228 kts | 228° |
| 2026-05-08 12:42 | 48.39420 | 7.38142 | 5533 ft | 230 kts | 228° |
| 2026-05-08 12:42 | 48.38360 | 7.36324 | 5528 ft | 232 kts | 228° |
| 2026-05-08 12:42 | 48.37300 | 7.34505 | 5526 ft | 233 kts | 227° |
| 2026-05-08 12:43 | 48.36227 | 7.32663 | 5529 ft | 233 kts | 227° |
| 2026-05-08 12:43 | 48.35156 | 7.30831 | 5530 ft | 231 kts | 228° |
| 2026-05-08 12:43 | 48.34238 | 7.28895 | 5513 ft | 229 kts | 249° |
| 2026-05-08 12:43 | 48.34203 | 7.26595 | 5522 ft | 222 kts | 290° |
| 2026-05-08 12:44 | 48.35167 | 7.24893 | 5522 ft | 216 kts | 332° |
| 2026-05-08 12:44 | 48.36598 | 7.24625 | 5511 ft | 212 kts | 14° |
| 2026-05-08 12:44 | 48.37767 | 7.25902 | 5472 ft | 210 kts | 58° |
| 2026-05-08 12:44 | 48.38034 | 7.28006 | 5469 ft | 207 kts | 95° |
| 2026-05-08 12:45 | 48.37871 | 7.30153 | 5471 ft | 207 kts | 93° |
| 2026-05-08 12:45 | 48.37767 | 7.32308 | 5469 ft | 207 kts | 92° |
| 2026-05-08 12:45 | 48.37784 | 7.34438 | 5451 ft | 206 kts | 74° |
| 2026-05-08 12:45 | 48.38505 | 7.36270 | 5468 ft | 204 kts | 50° |
| 2026-05-08 12:46 | 48.39419 | 7.37894 | 5468 ft | 206 kts | 49° |
| 2026-05-08 12:46 | 48.40367 | 7.39549 | 5130 ft | 212 kts | 50° |
| 2026-05-08 12:46 | 48.41299 | 7.41252 | 4645 ft | 213 kts | 50° |
| 2026-05-08 12:46 | 48.42274 | 7.42984 | 4033 ft | 220 kts | 49° |
| 2026-05-08 12:47 | 48.43256 | 7.44676 | 3708 ft | 211 kts | 48° |
| 2026-05-08 12:47 | 48.44205 | 7.46300 | 3419 ft | 201 kts | 48° |
| 2026-05-08 12:47 | 48.45101 | 7.47832 | 3131 ft | 190 kts | 48° |
| 2026-05-08 12:47 | 48.45954 | 7.49285 | 2847 ft | 177 kts | 48° |
| 2026-05-08 12:48 | 48.46742 | 7.50647 | 2664 ft | 172 kts | 49° |
| 2026-05-08 12:48 | 48.47535 | 7.52015 | 2405 ft | 169 kts | 47° |
| 2026-05-08 12:48 | 48.48273 | 7.53262 | 2100 ft | 151 kts | 46° |
| 2026-05-08 12:48 | 48.48935 | 7.54405 | 1967 ft | 139 kts | 47° |
| 2026-05-08 12:49 | 48.49558 | 7.55493 | 1789 ft | 137 kts | 48° |
| 2026-05-08 12:49 | 48.50177 | 7.56553 | 1545 ft | 134 kts | 46° |
| 2026-05-08 12:49 | 48.50775 | 7.57577 | 1322 ft | 126 kts | 47° |
| 2026-05-08 12:49 | 48.51355 | 7.58584 | 1148 ft | 129 kts | 49° |
| 2026-05-08 12:50 | 48.51951 | 7.59600 | 951 ft | 132 kts | 47° |
| 2026-05-08 12:50 | 48.52565 | 7.60647 | 744 ft | 133 kts | 46° |
| 2026-05-08 12:50 | 48.53172 | 7.61689 | 540 ft | 129 kts | 46° |
| 2026-05-08 12:50 | 48.53721 | 7.62636 | 508 ft | 97 kts | 46° |
| 2026-05-08 12:51 | 48.54033 | 7.63161 | 505 ft | 47 kts | 47° |
| 2026-05-08 12:51 | 48.54251 | 7.63345 | 505 ft | 11 kts | 313° |
| 2026-05-08 12:51 | 48.54293 | 7.63273 | 505 ft | 3 kts | 286° |
| 2026-05-08 12:52 | 48.54293 | 7.63269 | 505 ft | 0 kts | 281° |
| 2026-05-08 12:53 | 48.54295 | 7.63245 | 505 ft | 7 kts | 270° |
| 2026-05-08 12:53 | 48.54262 | 7.63169 | 505 ft | 10 kts | 227° |
| 2026-05-08 12:53 | 48.54208 | 7.63077 | 505 ft | 12 kts | 230° |
| 2026-05-08 12:54 | 48.54172 | 7.62979 | 506 ft | 10 kts | 272° |
| 2026-05-08 12:54 | 48.54207 | 7.62893 | 506 ft | 12 kts | 318° |
| 2026-05-08 12:54 | 48.54279 | 7.62836 | 506 ft | 10 kts | 6° |
| 2026-05-08 12:54 | 48.54328 | 7.62890 | 506 ft | 7 kts | 37° |
| 2026-05-08 12:55 | 48.54372 | 7.62964 | 506 ft | 9 kts | 46° |
| 2026-05-08 12:55 | 48.54416 | 7.63016 | 505 ft | 5 kts | 332° |
| 2026-05-08 12:55 | 48.54448 | 7.62991 | 506 ft | 5 kts | 339° |
| 2026-05-08 12:55 | 48.54470 | 7.62981 | 506 ft | 2 kts | 344° |
| 2026-05-08 12:56 | 48.54477 | 7.62977 | 506 ft | 1 kts | 343° |
| 2026-05-08 12:56 | 48.54478 | 7.62977 | 506 ft | 0 kts | 343° |